Airfield :
LOGIN :

Register | Disclaimer

   EN    FR    IT 

 










Legend :    VFR   Marginal VFR   IFR   Intensive IFR   Very Intensive IFR
Visi :
Ceiling :
>= 8 km
>= 3000ft
5 to 8 km
1000 to 3000 ft
1500m to 5 km
500 to 1000 ft
800 to 1500m
200 to 500 ft
< 800m
< 200 ft
Symbols :   Thunderstorms  Fog  Heavy snow  Heavy precipitations  Wind > 20 kt
SIGMETs :     Misc.  Thunderstorms  Icing  Turbulence  Mountain Waves  Volcanic Ashes







- Airport Elevation : 17 ft
- IATA code : GRQ


EHGG - Groningen Eelde

CURRENT METAR :
  • 261625Z AUTO 29008KT 260V320 9999 NSC 09/04 Q1029 NOSIG

EXPIRED METARs :
  • 261555Z AUTO 29008KT 260V320 9999 NSC 09/04 Q1029 NOSIG
  • 261525Z AUTO 30008KT 270V340 9999 FEW046 09/04 Q1029 NOSIG
  • 261455Z AUTO 30008KT 270V340 9999 FEW029 BKN044 OVC048 09/04 Q1029 NOSIG
  • 261425Z AUTO 30010KT 270V330 9999 BKN036 OVC040 09/04 Q1029 NOSIG
  • 261355Z AUTO 30010KT 260V340 9999 FEW023 SCT026 BKN035 09/04 Q1029 NOSIG

TAF TAF EHGG
Valid from the 26 at 12:00 until the 27 at 18:00 UTC


261118Z 2612/2718 31014KT 9999 BKN030
PROB30 2618/2622 BKN012
BECMG 2621/2624 27005KT 7000
PROB30 2700/2706 3000 BR
BECMG 2706/2709 9999 NSW
No reported NOTAMs for that airfield.



MET'MAP, your aeronautical weather chart ! - Copyright ORBIFLY December 2007 - Disclaimer

ORBIFLY MET'MAP TEAM :

Programming & Development : Alexandra Zaïnal
Concept & Development : Baudouin d'Aumeries
Co-Development & Prog : Marc-Olivier Méhu
Technical & hardware support : Manuel Goepfert

Contact : metmap@orbifly.com




SOURCES & CREDITS :

   NOAA